createdAt,value
2023-11-10T00:00:13.314Z,7.27
2023-11-10T00:02:43.753Z,3.43
2023-11-10T00:05:12.295Z,4.53
2023-11-10T00:07:40.792Z,4.00
2023-11-10T00:10:11.563Z,4.17
2023-11-10T00:12:39.564Z,8.07
2023-11-10T00:15:10.579Z,4.73
2023-11-10T00:17:41.324Z,5.67
2023-11-10T00:20:10.280Z,4.07
2023-11-10T00:22:40.260Z,4.47
2023-11-10T00:25:12.499Z,5.80
2023-11-10T00:27:40.496Z,2.90
2023-11-10T00:30:09.454Z,3.43
2023-11-10T00:32:38.417Z,2.73
2023-11-10T00:35:07.418Z,2.60
2023-11-10T00:37:35.791Z,3.70
2023-11-10T00:40:03.772Z,3.50
2023-11-10T00:42:33.127Z,3.27
2023-11-10T00:45:01.065Z,4.60
2023-11-10T00:47:29.063Z,4.80
2023-11-10T00:49:57.110Z,3.47
2023-11-10T00:52:25.078Z,3.00
2023-11-10T00:54:53.007Z,2.93
2023-11-10T00:57:20.996Z,5.90
2023-11-10T00:59:50.339Z,7.00
2023-11-10T01:02:18.353Z,2.67
2023-11-10T01:04:46.334Z,3.93
2023-11-10T01:07:14.365Z,2.87
2023-11-10T01:09:42.405Z,3.20
2023-11-10T01:12:11.241Z,1.80
2023-11-10T01:14:39.460Z,1.93
2023-11-10T01:17:08.905Z,3.10
2023-11-10T01:19:38.571Z,2.13
2023-11-10T01:22:06.661Z,1.43
2023-11-10T01:24:35.347Z,1.10
2023-11-10T01:27:03.434Z,1.97
2023-11-10T01:29:31.418Z,1.43
2023-11-10T01:32:00.714Z,1.03
2023-11-10T01:34:30.124Z,1.30
2023-11-10T01:36:58.162Z,0.90
2023-11-10T01:39:26.643Z,1.13
2023-11-10T01:41:54.867Z,1.13
2023-11-10T01:44:22.867Z,1.07
2023-11-10T01:46:51.419Z,2.47
2023-11-10T01:49:22.313Z,1.30
2023-11-10T01:51:53.914Z,2.30
2023-11-10T01:54:23.430Z,1.60
2023-11-10T01:56:53.267Z,1.57
2023-11-10T01:59:21.924Z,1.07
2023-11-10T02:01:50.115Z,1.80
2023-11-10T02:04:18.459Z,1.17
2023-11-10T02:06:48.275Z,1.30
2023-11-10T02:09:17.801Z,1.50
2023-11-10T02:11:45.806Z,1.40
2023-11-10T02:14:15.170Z,2.80
2023-11-10T02:16:43.580Z,1.47
2023-11-10T02:19:16.957Z,2.07
2023-11-10T02:21:45.706Z,1.90
2023-11-10T02:24:16.362Z,2.07
2023-11-10T02:26:45.938Z,2.33
2023-11-10T02:29:14.282Z,3.53
2023-11-10T02:31:42.278Z,2.83
2023-11-10T02:34:10.256Z,2.80
2023-11-10T02:36:38.484Z,3.30
2023-11-10T02:39:08.434Z,2.90
2023-11-10T02:41:37.802Z,3.07
2023-11-10T02:44:07.998Z,3.20
2023-11-10T02:46:36.088Z,3.10
2023-11-10T02:49:04.836Z,3.80
2023-11-10T02:51:33.009Z,3.70
2023-11-10T02:54:01.037Z,3.80
2023-11-10T02:56:29.003Z,4.60
2023-11-10T02:58:57.124Z,3.30
2023-11-10T03:01:27.664Z,3.83
2023-11-10T03:03:55.990Z,4.47
2023-11-10T03:06:24.145Z,3.90
2023-11-10T03:08:52.459Z,5.30
2023-11-10T03:11:21.220Z,4.07
2023-11-10T03:13:49.276Z,4.07
2023-11-10T03:16:17.379Z,4.70
2023-11-10T03:18:45.859Z,3.97
2023-11-10T03:21:18.910Z,3.80
2023-11-10T03:23:47.226Z,4.20
2023-11-10T03:26:15.175Z,5.53
2023-11-10T03:28:44.623Z,4.97
2023-11-10T03:31:12.785Z,5.20
2023-11-10T03:33:40.979Z,4.40
2023-11-10T03:36:11.298Z,4.73
2023-11-10T03:38:39.724Z,5.00
2023-11-10T03:41:08.980Z,4.90
2023-11-10T03:43:36.921Z,4.37
2023-11-10T03:46:05.156Z,5.27
2023-11-10T03:48:33.148Z,4.40
2023-11-10T03:51:01.155Z,6.07
2023-11-10T03:53:30.408Z,5.33
2023-11-10T03:55:58.674Z,5.83
2023-11-10T03:58:26.586Z,5.83
2023-11-10T04:00:54.536Z,5.57
2023-11-10T04:03:22.592Z,6.10
2023-11-10T04:05:50.857Z,5.83
2023-11-10T04:08:18.899Z,7.73
2023-11-10T04:10:48.988Z,5.77
2023-11-10T04:13:16.949Z,6.07
2023-11-10T04:15:48.738Z,7.47
2023-11-10T04:18:18.440Z,6.33
2023-11-10T04:20:47.141Z,6.93
2023-11-10T04:23:16.817Z,6.10
2023-11-10T04:25:44.932Z,6.97
2023-11-10T04:28:14.287Z,6.33
2023-11-10T04:30:42.432Z,6.13
2023-11-10T04:33:10.562Z,6.00
2023-11-10T04:35:38.515Z,6.27
2023-11-10T04:38:09.410Z,5.83
2023-11-10T04:40:37.961Z,6.93
2023-11-10T04:43:07.282Z,6.60
2023-11-10T04:45:36.595Z,6.33
2023-11-10T04:48:05.561Z,7.00
2023-11-10T04:50:33.521Z,6.07
2023-11-10T04:53:01.526Z,5.80
2023-11-10T04:55:29.465Z,6.13
2023-11-10T04:57:57.459Z,6.97
2023-11-10T05:00:25.428Z,6.90
2023-11-10T05:02:56.958Z,7.10
2023-11-10T05:05:26.337Z,6.77
2023-11-10T05:07:54.318Z,8.00
2023-11-10T05:10:22.260Z,6.73
2023-11-10T05:12:50.304Z,5.97
2023-11-10T05:15:18.284Z,6.30
2023-11-10T05:17:46.966Z,6.17
2023-11-10T05:20:17.195Z,6.40
2023-11-10T05:22:45.684Z,5.87
2023-11-10T05:25:13.824Z,5.90
2023-11-10T05:27:42.773Z,5.80
2023-11-10T05:30:13.221Z,5.80
2023-11-10T05:32:42.350Z,5.67
2023-11-10T05:35:10.613Z,5.23
2023-11-10T05:37:39.903Z,5.27
2023-11-10T05:40:10.917Z,5.93
2023-11-10T05:42:39.679Z,5.60
2023-11-10T05:45:10.218Z,5.53
2023-11-10T05:47:38.232Z,5.60
2023-11-10T05:50:07.515Z,6.10
2023-11-10T05:52:35.520Z,5.33
2023-11-10T05:55:05.334Z,5.60
2023-11-10T05:57:33.332Z,5.50
2023-11-10T06:00:01.334Z,6.77
2023-11-10T06:02:30.066Z,6.30
2023-11-10T06:04:58.235Z,5.33
2023-11-10T06:07:26.431Z,5.87
2023-11-10T06:09:54.442Z,6.20
2023-11-10T06:12:24.688Z,6.40
2023-11-10T06:14:52.779Z,5.47
2023-11-10T06:17:20.706Z,6.27
2023-11-10T06:19:48.942Z,4.70
2023-11-10T06:22:17.330Z,5.20
2023-11-10T06:24:45.320Z,6.00
2023-11-10T06:27:15.052Z,4.57
2023-11-10T06:29:44.411Z,4.80
2023-11-10T06:32:13.400Z,6.80
2023-11-10T06:34:42.335Z,4.20
2023-11-10T06:37:13.536Z,4.40
2023-11-10T06:39:41.939Z,4.73
2023-11-10T06:42:10.451Z,4.67
2023-11-10T06:44:39.167Z,4.57
2023-11-10T06:47:09.458Z,5.07
2023-11-10T06:49:37.466Z,4.60
2023-11-10T06:52:06.316Z,5.10
2023-11-10T06:54:34.346Z,7.33
2023-11-10T06:57:02.304Z,4.20
2023-11-10T06:59:30.211Z,3.57
2023-11-10T07:01:58.522Z,5.20
2023-11-10T07:04:27.890Z,4.60
2023-11-10T07:06:55.904Z,3.43
2023-11-10T07:09:26.726Z,4.00
2023-11-10T07:11:54.738Z,4.50
2023-11-10T07:14:22.627Z,4.80
2023-11-10T07:16:51.452Z,5.17
2023-11-10T07:19:20.029Z,5.80
2023-11-10T07:21:49.817Z,4.17
2023-11-10T07:24:17.779Z,4.43
2023-11-10T07:26:45.880Z,3.93
2023-11-10T07:29:13.895Z,5.53
2023-11-10T07:31:41.938Z,3.00
2023-11-10T07:34:11.360Z,3.43
2023-11-10T07:36:39.415Z,3.43
2023-11-10T07:39:09.428Z,3.17
2023-11-10T07:41:37.369Z,2.53
2023-11-10T07:44:06.110Z,2.80
2023-11-10T07:46:34.366Z,2.50
2023-11-10T07:49:02.456Z,6.67
2023-11-10T07:51:30.481Z,4.70
2023-11-10T07:53:58.483Z,4.90
2023-11-10T07:56:27.776Z,2.80
2023-11-10T07:58:55.728Z,3.20
2023-11-10T08:01:24.376Z,2.90
2023-11-10T08:03:52.602Z,4.53
2023-11-10T08:06:20.595Z,7.40
2023-11-10T08:08:48.713Z,2.63
2023-11-10T08:11:17.776Z,3.10
2023-11-10T08:13:47.469Z,4.17
2023-11-10T08:16:16.635Z,2.20
2023-11-10T08:18:44.694Z,2.60
2023-11-10T08:21:18.589Z,3.10
2023-11-10T08:23:46.801Z,3.23
2023-11-10T08:26:15.039Z,1.90
2023-11-10T08:28:42.997Z,2.00
2023-11-10T08:31:12.334Z,2.00
2023-11-10T08:33:40.429Z,5.13
2023-11-10T08:36:10.324Z,3.10
2023-11-10T08:38:38.280Z,2.10
2023-11-10T08:41:06.422Z,2.63
2023-11-10T08:43:35.088Z,3.87
2023-11-10T08:46:03.103Z,2.03
2023-11-10T08:48:32.542Z,3.40
2023-11-10T08:51:00.667Z,3.57
2023-11-10T08:53:29.040Z,2.30
2023-11-10T08:55:58.192Z,3.83
2023-11-10T08:58:26.178Z,3.43
2023-11-10T09:00:54.608Z,3.73
2023-11-10T09:03:22.714Z,2.80
2023-11-10T09:05:52.244Z,2.50
2023-11-10T09:08:20.238Z,2.30
2023-11-10T09:10:48.244Z,2.40
2023-11-10T09:13:16.322Z,3.57
2023-11-10T09:15:49.216Z,2.77
2023-11-10T09:18:21.582Z,3.03
2023-11-10T09:20:51.011Z,3.30
2023-11-10T09:23:19.054Z,2.63
2023-11-10T09:25:47.145Z,4.53
2023-11-10T09:28:15.180Z,5.00
2023-11-10T09:30:43.744Z,5.33
2023-11-10T09:33:11.890Z,2.90
2023-11-10T09:35:39.881Z,3.80
2023-11-10T09:38:10.784Z,3.00
2023-11-10T09:40:39.096Z,4.40
2023-11-10T09:43:07.575Z,3.40
2023-11-10T09:45:36.418Z,2.70
2023-11-10T09:48:09.446Z,3.70
2023-11-10T09:50:38.703Z,4.13
2023-11-10T09:53:08.792Z,3.17
2023-11-10T09:55:37.586Z,3.90
2023-11-10T09:58:08.849Z,3.23
2023-11-10T10:00:38.488Z,4.17
2023-11-10T10:03:06.693Z,3.37
2023-11-10T10:05:35.698Z,2.63
2023-11-10T10:08:03.781Z,3.23
2023-11-10T10:10:35.556Z,3.80
2023-11-10T10:13:03.752Z,5.00
2023-11-10T10:15:33.038Z,4.17
2023-11-10T10:18:08.789Z,3.27
2023-11-10T10:20:38.826Z,3.87
2023-11-10T10:23:08.391Z,3.83
2023-11-10T10:25:39.243Z,5.63
2023-11-10T10:28:08.780Z,3.33
2023-11-10T10:30:38.048Z,3.40
2023-11-10T10:33:08.154Z,3.70
2023-11-10T10:35:36.483Z,4.03
2023-11-10T10:38:06.517Z,3.60
2023-11-10T10:40:36.975Z,3.60
2023-11-10T10:43:09.113Z,3.20
2023-11-10T10:45:38.593Z,4.50
2023-11-10T10:48:07.665Z,3.50
2023-11-10T10:50:36.021Z,3.87
2023-11-10T10:53:07.657Z,3.60
2023-11-10T10:55:39.646Z,3.70
2023-11-10T10:58:09.574Z,4.80
2023-11-10T11:00:38.993Z,4.97
2023-11-10T11:03:24.852Z,3.77
2023-11-10T11:06:06.332Z,4.50
2023-11-10T11:08:55.637Z,4.27
2023-11-10T11:11:39.343Z,4.13
2023-11-10T11:14:31.331Z,3.70
2023-11-10T11:17:18.725Z,6.70
2023-11-10T11:19:47.185Z,3.87
2023-11-10T11:22:16.044Z,5.30
2023-11-10T11:24:45.471Z,3.80
2023-11-10T11:27:25.507Z,4.83
2023-11-10T11:29:58.032Z,4.67
2023-11-10T11:32:31.650Z,4.13
2023-11-10T11:34:59.829Z,3.40
2023-11-10T11:37:32.282Z,3.50
2023-11-10T11:40:02.674Z,3.13
2023-11-10T11:42:37.276Z,3.77
2023-11-10T11:45:12.750Z,4.10
2023-11-10T11:47:41.152Z,4.10
2023-11-10T11:50:10.904Z,3.30
2023-11-10T11:52:38.889Z,3.13
2023-11-10T11:55:07.850Z,7.23
2023-11-10T11:57:37.348Z,3.60
2023-11-10T12:00:09.970Z,4.70
2023-11-10T12:02:40.613Z,4.27
2023-11-10T12:05:14.143Z,3.13
2023-11-10T12:07:43.798Z,3.40
2023-11-10T12:10:13.657Z,4.90
2023-11-10T12:12:42.174Z,4.77
2023-11-10T12:15:11.803Z,5.43
2023-11-10T12:17:40.268Z,4.03
2023-11-10T12:20:11.030Z,3.80
2023-11-10T12:22:40.046Z,3.87
2023-11-10T12:25:11.659Z,4.13
2023-11-10T12:27:39.996Z,3.73
2023-11-10T12:30:09.200Z,3.60
2023-11-10T12:32:42.726Z,4.57
2023-11-10T12:35:13.452Z,4.30
2023-11-10T12:37:41.397Z,5.47
2023-11-10T12:40:14.269Z,5.13
2023-11-10T12:42:43.213Z,4.93
2023-11-10T12:45:12.419Z,6.83
2023-11-10T12:47:54.353Z,4.10
2023-11-10T12:50:31.256Z,4.93
2023-11-10T12:52:59.540Z,7.23
2023-11-10T12:55:28.694Z,4.67
2023-11-10T12:57:57.409Z,4.37
2023-11-10T13:00:26.591Z,4.57
2023-11-10T13:02:56.546Z,4.33
2023-11-10T13:05:25.601Z,4.13
2023-11-10T13:07:53.573Z,4.60
2023-11-10T13:10:22.205Z,3.77
2023-11-10T13:12:50.936Z,3.90
2023-11-10T13:15:19.043Z,7.40
2023-11-10T13:17:47.651Z,3.73
2023-11-10T13:20:18.168Z,5.00
2023-11-10T13:22:46.341Z,4.53
2023-11-10T13:25:15.288Z,5.20
2023-11-10T13:27:43.286Z,3.57
2023-11-10T13:30:14.159Z,4.20
2023-11-10T13:32:43.745Z,4.07
2023-11-10T13:35:12.267Z,4.00
2023-11-10T13:37:41.605Z,4.53
2023-11-10T13:40:13.655Z,3.80
2023-11-10T13:42:42.661Z,4.50
2023-11-10T13:45:12.647Z,3.80
2023-11-10T13:47:41.876Z,3.90
2023-11-10T13:50:11.974Z,4.07
2023-11-10T13:52:41.949Z,5.60
2023-11-10T13:55:11.668Z,3.80
2023-11-10T13:57:40.470Z,3.97
2023-11-10T14:00:14.086Z,4.53
2023-11-10T14:02:42.866Z,3.73
2023-11-10T14:05:11.010Z,4.40
2023-11-10T14:07:39.718Z,4.13
2023-11-10T14:10:11.601Z,3.73
2023-11-10T14:12:42.549Z,4.37
2023-11-10T14:15:12.802Z,4.83
2023-11-10T14:17:40.791Z,4.13
2023-11-10T14:20:10.690Z,4.33
2023-11-10T14:22:40.170Z,5.30
2023-11-10T14:25:10.709Z,4.23
2023-11-10T14:27:40.280Z,4.40
2023-11-10T14:30:09.858Z,4.70
2023-11-10T14:32:38.900Z,4.40
2023-11-10T14:35:11.146Z,4.33
2023-11-10T14:37:41.983Z,4.17
2023-11-10T14:40:18.176Z,4.00
2023-11-10T14:42:48.649Z,3.73
2023-11-10T14:45:22.613Z,4.30
2023-11-10T14:47:52.496Z,7.23
2023-11-10T14:50:35.655Z,3.73
2023-11-10T14:53:07.390Z,5.50
2023-11-10T14:55:36.741Z,3.83
2023-11-10T14:58:05.100Z,3.80
2023-11-10T15:00:34.263Z,4.37
2023-11-10T15:03:05.597Z,4.40
2023-11-10T15:05:35.179Z,4.53
2023-11-10T15:08:05.317Z,3.70
2023-11-10T15:10:38.970Z,3.90
2023-11-10T15:13:10.419Z,4.00
2023-11-10T15:15:39.344Z,5.23
2023-11-10T15:18:10.340Z,7.33
2023-11-10T15:20:38.952Z,4.17
2023-11-10T15:23:07.127Z,4.53
2023-11-10T15:25:35.134Z,4.80
2023-11-10T15:28:03.120Z,5.97
2023-11-10T15:30:33.430Z,5.90
2023-11-10T15:33:04.889Z,4.03
2023-11-10T15:35:33.646Z,5.03
2023-11-10T15:38:01.755Z,4.43
2023-11-10T15:40:30.073Z,4.80
2023-11-10T15:42:58.444Z,3.80
2023-11-10T15:45:26.455Z,3.90
2023-11-10T15:47:55.900Z,5.67
2023-11-10T15:50:24.173Z,4.73
2023-11-10T15:52:52.217Z,5.73
2023-11-10T15:55:20.190Z,3.60
2023-11-10T15:57:49.744Z,3.63
2023-11-10T16:00:21.768Z,4.37
2023-11-10T16:02:50.398Z,4.00
2023-11-10T16:05:20.133Z,3.83
2023-11-10T16:07:48.227Z,3.33
2023-11-10T16:10:16.345Z,4.03
2023-11-10T16:12:46.121Z,4.53
2023-11-10T16:15:14.375Z,3.97
2023-11-10T16:17:42.349Z,3.30
2023-11-10T16:20:13.521Z,3.20
2023-11-10T16:22:44.107Z,10.27
2023-11-10T16:25:12.566Z,3.77
2023-11-10T16:27:41.565Z,8.33
2023-11-10T16:30:10.944Z,6.13
2023-11-10T16:32:40.130Z,4.90
2023-11-10T16:35:08.523Z,3.07
2023-11-10T16:37:39.192Z,3.07
2023-11-10T16:40:11.543Z,3.43
2023-11-10T16:42:39.566Z,4.10
2023-11-10T16:45:09.050Z,2.90
2023-11-10T16:47:37.284Z,5.23
2023-11-10T16:50:05.697Z,4.97
2023-11-10T16:52:33.692Z,3.40
2023-11-10T16:55:01.678Z,5.53
2023-11-10T16:57:35.368Z,3.87
2023-11-10T17:00:06.214Z,3.90
2023-11-10T17:02:39.321Z,3.40
2023-11-10T17:05:15.993Z,4.37
2023-11-10T17:07:43.968Z,3.37
2023-11-10T17:10:12.236Z,4.90
2023-11-10T17:12:42.385Z,3.27
2023-11-10T17:15:12.152Z,5.17
2023-11-10T17:17:42.652Z,3.93
2023-11-10T17:20:12.288Z,3.53
2023-11-10T17:22:41.259Z,3.47
2023-11-10T17:25:10.046Z,3.57
2023-11-10T17:27:38.441Z,2.83
2023-11-10T17:30:09.151Z,3.60
2023-11-10T17:32:37.443Z,3.47
2023-11-10T17:35:06.067Z,3.67
2023-11-10T17:37:34.146Z,3.83
2023-11-10T17:40:02.219Z,3.30
2023-11-10T17:42:30.481Z,5.17
2023-11-10T17:44:58.468Z,3.80
2023-11-10T17:47:27.887Z,5.70
2023-11-10T17:49:55.967Z,4.23
2023-11-10T17:52:23.916Z,4.00
2023-11-10T17:54:51.939Z,4.70
2023-11-10T17:57:19.977Z,4.10
2023-11-10T17:59:47.972Z,3.53
2023-11-10T18:02:16.416Z,6.53
2023-11-10T18:04:52.382Z,5.87
2023-11-10T18:07:23.591Z,8.23
2023-11-10T18:09:51.655Z,6.70
2023-11-10T18:12:19.619Z,6.23
2023-11-10T18:14:48.490Z,4.60
2023-11-10T18:17:16.506Z,4.73
2023-11-10T18:19:45.852Z,3.70
2023-11-10T18:22:13.799Z,3.97
2023-11-10T18:24:41.773Z,3.93
2023-11-10T18:27:09.798Z,3.60
2023-11-10T18:29:37.718Z,3.23
2023-11-10T18:32:06.630Z,4.40
2023-11-10T18:34:34.575Z,4.47
2023-11-10T18:37:04.952Z,3.70
2023-11-10T18:39:32.909Z,3.73
2023-11-10T18:42:00.858Z,5.27
2023-11-10T18:44:28.868Z,4.13
2023-11-10T18:46:56.849Z,6.70
2023-11-10T18:49:24.817Z,3.00
2023-11-10T18:51:52.782Z,3.33
2023-11-10T18:54:22.061Z,4.60
2023-11-10T18:56:50.026Z,3.23
2023-11-10T18:59:18.000Z,3.50
2023-11-10T19:01:46.089Z,3.37
2023-11-10T19:04:14.316Z,4.33
2023-11-10T19:06:42.331Z,3.40
2023-11-10T19:09:10.744Z,2.83
2023-11-10T19:11:40.073Z,2.67
2023-11-10T19:14:08.747Z,3.70
2023-11-10T19:16:36.777Z,2.90
2023-11-10T19:19:04.809Z,3.57
2023-11-10T19:21:37.672Z,3.47
2023-11-10T19:24:06.244Z,4.10
2023-11-10T19:26:34.196Z,3.07
2023-11-10T19:29:03.490Z,2.90
2023-11-10T19:31:31.504Z,2.87
2023-11-10T19:33:59.484Z,3.47
2023-11-10T19:36:27.514Z,3.13
2023-11-10T19:38:55.429Z,3.70
2023-11-10T19:41:23.379Z,2.90
2023-11-10T19:43:54.371Z,3.00
2023-11-10T19:46:23.876Z,3.10
2023-11-10T19:48:52.263Z,4.20
2023-11-10T19:56:22.929Z,4.73
2023-11-10T20:01:23.033Z,3.00
2023-11-10T20:03:51.043Z,3.80
2023-11-10T20:06:19.188Z,2.80
2023-11-10T20:08:47.214Z,4.70
2023-11-10T20:11:19.865Z,4.20
2023-11-10T20:13:51.201Z,2.40
2023-11-10T20:16:20.218Z,3.30
2023-11-10T20:18:49.965Z,4.13
2023-11-10T20:21:18.275Z,4.10
2023-11-10T20:23:47.708Z,5.00
2023-11-10T20:26:15.698Z,3.30
2023-11-10T20:28:43.737Z,3.30
2023-11-10T20:31:12.390Z,2.83
2023-11-10T20:33:40.715Z,5.63
2023-11-10T20:36:10.482Z,2.50
2023-11-10T20:38:38.434Z,5.83
2023-11-10T20:41:09.187Z,3.50
2023-11-10T20:43:37.751Z,3.50
2023-11-10T20:46:09.223Z,2.93
2023-11-10T20:48:37.495Z,4.87
2023-11-10T20:51:06.004Z,3.20
2023-11-10T20:53:37.089Z,2.43
2023-11-10T20:56:05.814Z,4.63
2023-11-10T20:58:33.760Z,2.40
2023-11-10T21:01:01.985Z,2.87
2023-11-10T21:03:30.026Z,3.97
2023-11-10T21:05:58.844Z,3.60
2023-11-10T21:08:28.515Z,5.23
2023-11-10T21:10:57.920Z,2.80
2023-11-10T21:13:28.124Z,2.80
2023-11-10T21:15:56.485Z,2.80
2023-11-10T21:18:24.540Z,3.83
2023-11-10T21:20:52.643Z,3.77
2023-11-10T21:23:20.854Z,5.20
2023-11-10T21:25:49.069Z,3.17
2023-11-10T21:28:18.364Z,3.53
2023-11-10T21:30:50.235Z,3.30
2023-11-10T21:33:22.867Z,3.97
2023-11-10T21:35:51.100Z,3.03
2023-11-10T21:38:19.124Z,4.03
2023-11-10T21:40:47.284Z,4.83
2023-11-10T21:43:15.228Z,3.70
2023-11-10T21:45:45.659Z,3.40
2023-11-10T21:48:15.397Z,3.43
2023-11-10T21:50:44.530Z,3.57
2023-11-10T21:53:13.372Z,6.60
2023-11-10T21:55:43.456Z,8.33
2023-11-10T21:58:13.535Z,9.73
2023-11-10T22:00:41.618Z,12.40
2023-11-10T22:03:11.187Z,11.50
2023-11-10T22:05:39.459Z,11.63
2023-11-10T22:08:07.653Z,9.87
2023-11-10T22:10:37.002Z,11.00
2023-11-10T22:13:04.987Z,10.57
2023-11-10T22:15:33.098Z,8.13
2023-11-10T22:18:01.227Z,6.60
2023-11-10T22:20:30.666Z,4.63
2023-11-10T22:22:58.591Z,4.97
2023-11-10T22:25:28.685Z,5.60
2023-11-10T22:28:00.103Z,4.20
2023-11-10T22:30:28.610Z,4.50
2023-11-10T22:32:56.621Z,4.10
2023-11-10T22:35:24.556Z,3.97
2023-11-10T22:37:54.707Z,3.73
2023-11-10T22:40:22.898Z,5.00
2023-11-10T22:42:50.883Z,5.07
2023-11-10T22:45:20.524Z,4.33
2023-11-10T22:47:49.761Z,3.50
2023-11-10T22:50:18.376Z,5.27
2023-11-10T22:52:46.983Z,3.90
2023-11-10T22:55:17.852Z,3.80
2023-11-10T22:57:47.291Z,4.10
2023-11-10T23:00:28.266Z,4.20
2023-11-10T23:02:57.348Z,5.10
2023-11-10T23:05:25.665Z,6.40
2023-11-10T23:07:54.044Z,3.50
2023-11-10T23:10:27.458Z,4.00
2023-11-10T23:12:59.233Z,4.33
2023-11-10T23:15:27.935Z,4.20
2023-11-10T23:17:59.981Z,4.10
2023-11-10T23:20:34.091Z,4.53
2023-11-10T23:23:04.646Z,4.23
2023-11-10T23:25:38.090Z,6.50
2023-11-10T23:28:06.724Z,4.53
2023-11-10T23:30:35.273Z,4.83
2023-11-10T23:33:03.595Z,5.13
2023-11-10T23:35:32.879Z,5.40
2023-11-10T23:38:00.854Z,5.00
2023-11-10T23:40:28.789Z,4.93
2023-11-10T23:42:58.097Z,6.70
2023-11-10T23:45:26.454Z,4.93
2023-11-10T23:47:54.505Z,4.93
2023-11-10T23:50:22.465Z,4.70
2023-11-10T23:52:50.391Z,4.93
2023-11-10T23:55:19.100Z,4.80
2023-11-10T23:57:47.778Z,5.07
